createdAt,value
2018-05-16T00:01:56.388Z,9.60
2018-05-16T00:04:23.916Z,9.70
2018-05-16T00:06:51.459Z,13.23
2018-05-16T00:09:19.802Z,12.33
2018-05-16T00:11:47.361Z,9.70
2018-05-16T00:14:14.965Z,9.70
2018-05-16T00:16:43.264Z,9.97
2018-05-16T00:19:10.825Z,7.43
2018-05-16T00:21:38.370Z,11.07
2018-05-16T00:24:06.707Z,9.90
2018-05-16T00:26:34.260Z,12.10
2018-05-16T00:29:01.833Z,13.03
2018-05-16T00:31:29.378Z,10.83
2018-05-16T00:33:56.948Z,9.60
2018-05-16T00:36:24.503Z,13.27
2018-05-16T00:38:52.063Z,9.77
2018-05-16T00:41:20.576Z,13.33
2018-05-16T00:43:48.892Z,10.43
2018-05-16T00:46:16.455Z,11.87
2018-05-16T00:48:44.013Z,10.83
2018-05-16T00:51:23.473Z,12.87
2018-05-16T00:53:51.030Z,12.17
2018-05-16T00:56:18.604Z,11.70
2018-05-16T00:58:46.151Z,14.63
2018-05-16T01:01:13.709Z,11.37
2018-05-16T01:03:41.257Z,13.07
2018-05-16T01:06:08.829Z,14.93
2018-05-16T01:08:36.401Z,14.03
2018-05-16T01:11:04.735Z,13.60
2018-05-16T01:13:33.044Z,12.23
2018-05-16T01:16:00.605Z,15.57
2018-05-16T01:18:28.162Z,13.53
2018-05-16T01:20:55.721Z,15.20
2018-05-16T01:23:23.328Z,17.80
2018-05-16T01:25:50.896Z,18.77
2018-05-16T01:28:18.447Z,15.10
2018-05-16T01:30:46.009Z,13.67
2018-05-16T01:33:13.555Z,19.23
2018-05-16T01:35:41.121Z,17.23
2018-05-16T01:38:08.681Z,16.50
2018-05-16T01:40:36.245Z,17.77
2018-05-16T01:43:03.797Z,17.30
2018-05-16T01:45:31.380Z,15.37
2018-05-16T01:47:58.929Z,26.20
2018-05-16T01:50:26.503Z,18.97
2018-05-16T01:52:54.038Z,16.23
2018-05-16T01:55:21.606Z,16.07
2018-05-16T01:57:49.149Z,17.10
2018-05-16T02:00:16.735Z,16.57
2018-05-16T02:02:44.284Z,18.07
2018-05-16T02:05:11.857Z,15.03
2018-05-16T02:07:39.434Z,17.40
2018-05-16T02:10:07.753Z,19.23
2018-05-16T02:12:35.325Z,20.00
2018-05-16T02:15:02.863Z,13.20
2018-05-16T02:17:30.477Z,19.27
2018-05-16T02:19:58.013Z,13.83
2018-05-16T02:22:25.572Z,18.83
2018-05-16T02:24:53.117Z,16.07
2018-05-16T02:27:20.709Z,20.53
2018-05-16T02:29:48.254Z,16.10
2018-05-16T02:32:15.839Z,17.17
2018-05-16T02:34:43.458Z,17.37
2018-05-16T02:37:11.027Z,17.33
2018-05-16T02:39:38.568Z,18.67
2018-05-16T02:42:06.146Z,19.43
2018-05-16T02:44:33.691Z,23.03
2018-05-16T02:47:01.280Z,18.83
2018-05-16T02:49:28.825Z,21.63
2018-05-16T02:51:56.412Z,21.17
2018-05-16T02:54:24.009Z,22.83
2018-05-16T02:56:51.523Z,20.80
2018-05-16T02:59:19.062Z,17.07
2018-05-16T03:01:47.267Z,17.80
2018-05-16T03:04:14.863Z,21.87
2018-05-16T03:06:43.203Z,19.40
2018-05-16T03:09:10.751Z,17.70
2018-05-16T03:11:38.322Z,17.37
2018-05-16T03:14:06.687Z,22.50
2018-05-16T03:16:34.236Z,17.07
2018-05-16T03:19:01.799Z,21.47
2018-05-16T03:21:29.357Z,17.47
2018-05-16T03:23:56.960Z,16.50
2018-05-16T03:26:24.525Z,20.63
2018-05-16T03:28:52.079Z,21.70
2018-05-16T03:31:19.625Z,21.00
2018-05-16T03:33:47.199Z,18.50
2018-05-16T03:36:14.739Z,20.60
2018-05-16T03:38:43.071Z,22.93
2018-05-16T03:41:10.619Z,16.07
2018-05-16T03:43:38.957Z,19.67
2018-05-16T03:46:06.500Z,20.23
2018-05-16T03:48:34.073Z,21.17
2018-05-16T03:51:01.628Z,18.77
2018-05-16T03:53:29.197Z,19.17
2018-05-16T03:55:56.745Z,20.07
2018-05-16T03:58:36.153Z,23.43
2018-05-16T04:01:15.437Z,23.30
2018-05-16T04:03:54.956Z,20.07
2018-05-16T04:06:22.496Z,19.63
2018-05-16T04:08:50.073Z,19.97
2018-05-16T04:11:17.644Z,23.20
2018-05-16T04:13:45.222Z,16.57
2018-05-16T04:16:12.772Z,21.20
2018-05-16T04:18:40.312Z,20.37
2018-05-16T04:21:07.873Z,15.57
2018-05-16T04:23:35.432Z,15.10
2018-05-16T04:26:02.992Z,25.00
2018-05-16T04:28:30.545Z,16.40
2018-05-16T04:30:58.123Z,21.90
2018-05-16T04:33:25.669Z,18.07
2018-05-16T04:35:53.235Z,16.47
2018-05-16T04:38:20.789Z,19.00
2018-05-16T04:40:48.376Z,18.50
2018-05-16T04:43:15.935Z,18.13
2018-05-16T04:45:43.505Z,16.77
2018-05-16T04:48:11.056Z,13.87
2018-05-16T04:50:38.639Z,18.40
2018-05-16T04:53:06.189Z,17.13
2018-05-16T04:55:33.751Z,16.53
2018-05-16T04:58:01.290Z,17.03
2018-05-16T05:00:28.857Z,15.70
2018-05-16T05:02:56.400Z,15.30
2018-05-16T05:05:23.984Z,15.40
2018-05-16T05:07:56.292Z,12.97
2018-05-16T05:10:23.897Z,15.63
2018-05-16T05:12:51.469Z,16.90
2018-05-16T05:15:19.065Z,14.47
2018-05-16T05:17:47.386Z,15.57
2018-05-16T05:20:14.965Z,19.67
2018-05-16T05:22:42.527Z,12.83
2018-05-16T05:25:10.082Z,24.00
2018-05-16T05:27:37.633Z,13.80
2018-05-16T05:30:05.205Z,16.80
2018-05-16T05:32:32.766Z,14.50
2018-05-16T05:35:00.320Z,16.27
2018-05-16T05:37:27.901Z,13.33
2018-05-16T05:39:55.469Z,13.93
2018-05-16T05:42:23.058Z,17.07
2018-05-16T05:44:51.372Z,14.53
2018-05-16T05:47:18.942Z,15.67
2018-05-16T05:49:46.485Z,12.47
2018-05-16T05:52:14.045Z,17.60
2018-05-16T05:54:41.601Z,14.10
2018-05-16T05:57:09.173Z,14.23
2018-05-16T05:59:36.729Z,12.17
2018-05-16T06:02:04.288Z,13.68
2018-05-16T06:04:31.838Z,13.37
2018-05-16T06:06:59.398Z,13.03
2018-05-16T06:09:26.954Z,19.33
2018-05-16T06:11:54.513Z,13.07
2018-05-16T06:14:22.054Z,17.33
2018-05-16T06:16:50.378Z,16.37
2018-05-16T06:19:17.914Z,15.73
2018-05-16T06:21:45.519Z,14.47
2018-05-16T06:24:13.063Z,15.73
2018-05-16T06:26:40.633Z,15.27
2018-05-16T06:29:08.182Z,11.93
2018-05-16T06:31:35.744Z,16.83
2018-05-16T06:34:03.288Z,19.30
2018-05-16T06:36:30.868Z,17.37
2018-05-16T06:38:58.399Z,16.10
2018-05-16T06:41:25.977Z,19.13
2018-05-16T06:43:53.536Z,16.90
2018-05-16T06:46:21.125Z,18.00
2018-05-16T06:48:48.667Z,15.77
2018-05-16T06:51:16.223Z,14.27
2018-05-16T06:53:43.788Z,16.20
2018-05-16T06:56:12.110Z,17.20
2018-05-16T06:58:40.461Z,16.33
2018-05-16T07:01:08.063Z,14.20
2018-05-16T07:03:36.408Z,12.25
2018-05-16T07:06:03.940Z,11.88
2018-05-16T07:08:31.503Z,9.30
2018-05-16T07:10:59.057Z,13.35
2018-05-16T07:13:26.630Z,11.05
2018-05-16T07:15:54.168Z,12.90
2018-05-16T07:18:21.744Z,12.90
2018-05-16T07:20:49.276Z,11.00
2018-05-16T07:23:16.845Z,11.93
2018-05-16T07:25:45.292Z,9.43
2018-05-16T07:28:12.852Z,9.90
2018-05-16T07:30:41.196Z,12.80
2018-05-16T07:33:08.771Z,9.00
2018-05-16T07:35:36.311Z,10.75
2018-05-16T07:38:03.877Z,10.23
2018-05-16T07:40:31.455Z,10.52
2018-05-16T07:42:59.029Z,9.30
2018-05-16T07:45:39.422Z,12.73
2018-05-16T07:48:06.993Z,8.38
2018-05-16T07:50:34.549Z,7.12
2018-05-16T07:53:02.112Z,8.57
2018-05-16T07:55:29.657Z,6.68
2018-05-16T07:57:57.223Z,6.55
2018-05-16T08:00:24.773Z,6.05
2018-05-16T08:02:52.366Z,6.05
2018-05-16T08:05:19.901Z,5.95
2018-05-16T08:07:47.475Z,7.35
2018-05-16T08:10:15.033Z,5.68
2018-05-16T08:12:42.582Z,6.37
2018-05-16T08:15:10.144Z,8.68
2018-05-16T08:17:37.688Z,5.87
2018-05-16T08:20:06.027Z,4.70
2018-05-16T08:22:33.591Z,5.80
2018-05-16T08:25:01.183Z,5.93
2018-05-16T08:27:29.493Z,7.50
2018-05-16T08:29:57.054Z,5.43
2018-05-16T08:32:24.653Z,7.50
2018-05-16T08:34:52.245Z,6.60
2018-05-16T08:37:20.556Z,7.53
2018-05-16T08:39:48.242Z,5.28
2018-05-16T08:42:15.768Z,7.30
2018-05-16T08:44:43.361Z,6.10
2018-05-16T08:47:10.931Z,6.03
2018-05-16T08:49:38.492Z,5.05
2018-05-16T08:52:06.033Z,6.40
2018-05-16T08:54:33.596Z,6.75
2018-05-16T08:57:01.129Z,6.03
2018-05-16T08:59:28.789Z,7.05
2018-05-16T09:01:56.339Z,4.78
2018-05-16T09:04:24.678Z,4.00
2018-05-16T09:06:52.224Z,4.43
2018-05-16T09:09:19.780Z,5.85
2018-05-16T09:11:47.330Z,4.97
2018-05-16T09:14:14.882Z,5.00
2018-05-16T09:16:42.484Z,4.32
2018-05-16T09:19:10.051Z,3.70
2018-05-16T09:21:37.584Z,4.07
2018-05-16T09:24:05.126Z,4.72
2018-05-16T09:26:32.829Z,4.12
2018-05-16T09:29:00.376Z,3.95
2018-05-16T09:31:27.951Z,3.33
2018-05-16T09:33:55.508Z,3.58
2018-05-16T09:36:23.090Z,3.85
2018-05-16T09:38:50.665Z,3.60
2018-05-16T09:41:18.998Z,3.87
2018-05-16T09:43:47.324Z,4.03
2018-05-16T09:46:14.918Z,3.47
2018-05-16T09:48:42.460Z,3.62
2018-05-16T09:51:10.016Z,2.15
2018-05-16T09:53:37.557Z,3.37
2018-05-16T09:56:05.196Z,3.83
2018-05-16T09:58:32.732Z,4.53
2018-05-16T10:01:00.309Z,2.95
2018-05-16T10:03:28.624Z,3.35
2018-05-16T10:05:56.967Z,2.58
2018-05-16T10:08:24.534Z,7.40
2018-05-16T10:10:52.118Z,3.28
2018-05-16T10:13:20.467Z,2.85
2018-05-16T10:15:48.053Z,4.80
2018-05-16T10:18:16.644Z,3.62
2018-05-16T10:20:44.601Z,2.22
2018-05-16T10:23:12.214Z,2.60
2018-05-16T10:25:39.776Z,3.25
2018-05-16T10:28:07.334Z,2.60
2018-05-16T10:30:34.888Z,1.75
2018-05-16T10:33:02.450Z,2.05
2018-05-16T10:35:30.040Z,1.67
2018-05-16T10:37:57.600Z,3.90
2018-05-16T10:40:25.156Z,4.53
2018-05-16T10:42:52.731Z,1.87
2018-05-16T10:45:20.281Z,2.20
2018-05-16T10:47:47.845Z,1.80
2018-05-16T10:50:15.415Z,2.03
2018-05-16T10:52:42.977Z,3.22
2018-05-16T10:55:10.534Z,3.35
2018-05-16T10:57:38.096Z,4.55
2018-05-16T11:00:05.668Z,1.55
2018-05-16T11:02:33.230Z,2.78
2018-05-16T11:05:00.781Z,6.05
2018-05-16T11:07:28.445Z,2.40
2018-05-16T11:09:55.997Z,2.40
2018-05-16T11:12:23.603Z,2.10
2018-05-16T11:14:51.176Z,1.85
2018-05-16T11:17:18.764Z,2.20
2018-05-16T11:19:48.242Z,2.75
2018-05-16T11:22:16.760Z,2.35
2018-05-16T11:24:44.375Z,3.85
2018-05-16T11:27:12.006Z,2.62
2018-05-16T11:29:39.617Z,1.52
2018-05-16T11:32:07.244Z,1.70
2018-05-16T11:34:35.592Z,3.47
2018-05-16T11:37:03.205Z,3.17
2018-05-16T11:39:31.516Z,2.55
2018-05-16T11:41:59.094Z,3.00
2018-05-16T11:44:26.642Z,2.08
2018-05-16T11:46:54.206Z,2.58
2018-05-16T11:49:21.747Z,2.08
2018-05-16T11:51:49.295Z,2.42
2018-05-16T11:54:16.860Z,1.60
2018-05-16T11:56:44.441Z,2.58
2018-05-16T11:59:12.029Z,2.03
2018-05-16T12:01:39.592Z,1.60
2018-05-16T12:04:07.142Z,2.10
2018-05-16T12:06:34.676Z,1.80
2018-05-16T12:09:04.304Z,1.80
2018-05-16T12:11:31.836Z,1.50
2018-05-16T12:13:59.402Z,1.87
2018-05-16T12:16:26.940Z,1.83
2018-05-16T12:18:54.544Z,1.67
2018-05-16T12:21:22.090Z,1.52
2018-05-16T12:23:49.643Z,2.30
2018-05-16T12:26:17.205Z,1.33
2018-05-16T12:28:45.771Z,2.87
2018-05-16T12:31:13.313Z,1.92
2018-05-16T12:33:41.692Z,1.90
2018-05-16T12:36:10.019Z,1.52
2018-05-16T12:38:37.579Z,4.53
2018-05-16T12:41:05.120Z,2.97
2018-05-16T12:43:32.680Z,1.67
2018-05-16T12:46:00.244Z,1.80
2018-05-16T12:48:27.830Z,2.33
2018-05-16T12:50:56.154Z,2.60
2018-05-16T12:53:24.485Z,1.40
2018-05-16T12:55:52.810Z,3.55
2018-05-16T12:58:22.956Z,2.30
2018-05-16T13:00:50.537Z,1.40
2018-05-16T13:03:18.084Z,1.55
2018-05-16T13:05:45.670Z,1.50
2018-05-16T13:08:13.200Z,1.40
2018-05-16T13:10:40.771Z,1.35
2018-05-16T13:13:08.307Z,1.33
2018-05-16T13:15:35.852Z,3.75
2018-05-16T13:18:04.201Z,1.33
2018-05-16T13:20:31.755Z,1.05
2018-05-16T13:23:00.285Z,1.52
2018-05-16T13:25:28.617Z,1.52
2018-05-16T13:27:56.193Z,1.87
2018-05-16T13:30:23.754Z,1.58
2018-05-16T13:32:51.296Z,1.50
2018-05-16T13:35:18.849Z,1.73
2018-05-16T13:37:46.395Z,2.15
2018-05-16T13:40:13.965Z,1.80
2018-05-16T13:42:41.522Z,4.75
2018-05-16T13:45:09.085Z,2.72
2018-05-16T13:47:38.695Z,2.17
2018-05-16T13:50:11.182Z,1.83
2018-05-16T13:52:42.530Z,2.40
2018-05-16T13:55:10.090Z,1.62
2018-05-16T13:57:37.630Z,2.05
2018-05-16T14:00:05.229Z,2.15
2018-05-16T14:02:32.739Z,1.60
2018-05-16T14:05:00.284Z,1.90
2018-05-16T14:07:27.841Z,1.90
2018-05-16T14:09:55.395Z,2.10
2018-05-16T14:12:23.695Z,1.60
2018-05-16T14:14:51.270Z,1.92
2018-05-16T14:17:18.811Z,5.22
2018-05-16T14:19:46.361Z,2.28
2018-05-16T14:22:14.003Z,3.85
2018-05-16T14:24:41.501Z,4.70
2018-05-16T14:27:09.065Z,3.10
2018-05-16T14:29:36.605Z,3.00
2018-05-16T14:32:04.955Z,1.55
2018-05-16T14:34:32.479Z,2.87
2018-05-16T14:37:00.049Z,3.92
2018-05-16T14:39:27.600Z,1.75
2018-05-16T14:41:55.150Z,2.30
2018-05-16T14:44:22.683Z,2.60
2018-05-16T14:46:51.004Z,2.42
2018-05-16T14:49:18.543Z,2.40
2018-05-16T14:51:46.091Z,3.67
2018-05-16T14:54:13.623Z,2.70
2018-05-16T14:56:41.186Z,3.08
2018-05-16T14:59:08.721Z,2.45
2018-05-16T15:01:36.284Z,3.72
2018-05-16T15:04:03.820Z,2.08
2018-05-16T15:06:31.403Z,7.28
2018-05-16T15:08:58.949Z,2.28
2018-05-16T15:11:26.502Z,2.15
2018-05-16T15:13:54.052Z,3.05
2018-05-16T15:16:21.628Z,2.15
2018-05-16T15:18:49.157Z,1.87
2018-05-16T15:21:16.730Z,2.42
2018-05-16T15:23:44.276Z,2.55
2018-05-16T15:26:11.849Z,2.22
2018-05-16T15:28:39.397Z,1.98
2018-05-16T15:31:06.967Z,2.15
2018-05-16T15:33:34.642Z,2.10
2018-05-16T15:36:02.193Z,2.33
2018-05-16T15:38:29.806Z,1.85
2018-05-16T15:40:57.312Z,2.25
2018-05-16T15:43:24.870Z,1.92
2018-05-16T15:45:52.416Z,2.45
2018-05-16T15:48:19.977Z,3.25
2018-05-16T15:50:47.517Z,3.78
2018-05-16T15:53:15.844Z,2.70
2018-05-16T15:55:44.381Z,2.37
2018-05-16T15:58:11.954Z,1.77
2018-05-16T16:00:40.291Z,2.62
2018-05-16T16:03:07.861Z,2.17
2018-05-16T16:05:35.387Z,2.65
2018-05-16T16:08:02.967Z,2.55
2018-05-16T16:10:30.495Z,2.87
2018-05-16T16:12:58.052Z,5.40
2018-05-16T16:15:25.655Z,4.32
2018-05-16T16:17:53.217Z,1.70
2018-05-16T16:20:20.759Z,2.03
2018-05-16T16:22:48.332Z,1.90
2018-05-16T16:25:15.879Z,1.60
2018-05-16T16:27:43.440Z,2.00
2018-05-16T16:30:10.985Z,1.73
2018-05-16T16:32:38.551Z,1.87
2018-05-16T16:35:06.128Z,2.17
2018-05-16T16:37:34.490Z,3.37
2018-05-16T16:40:02.036Z,2.78
2018-05-16T16:42:29.590Z,1.95
2018-05-16T16:44:57.270Z,2.47
2018-05-16T16:47:25.491Z,2.12
2018-05-16T16:49:53.052Z,1.98
2018-05-16T16:52:20.598Z,3.60
2018-05-16T16:54:48.190Z,2.87
2018-05-16T16:57:16.557Z,5.07
2018-05-16T16:59:45.010Z,1.65
2018-05-16T17:02:12.568Z,2.35
2018-05-16T17:04:40.190Z,2.15
2018-05-16T17:07:07.708Z,2.30
2018-05-16T17:09:35.286Z,2.17
2018-05-16T17:12:03.603Z,2.90
2018-05-16T17:14:31.159Z,1.67
2018-05-16T17:16:58.683Z,3.25
2018-05-16T17:19:27.017Z,2.55
2018-05-16T17:21:54.553Z,2.20
2018-05-16T17:24:22.119Z,2.70
2018-05-16T17:26:49.761Z,1.85
2018-05-16T17:29:17.268Z,2.70
2018-05-16T17:31:44.816Z,3.87
2018-05-16T17:34:12.372Z,3.17
2018-05-16T17:36:39.934Z,2.20
2018-05-16T17:39:07.496Z,2.42
2018-05-16T17:41:35.058Z,2.65
2018-05-16T17:44:02.697Z,2.00
2018-05-16T17:46:30.237Z,3.15
2018-05-16T17:48:58.566Z,2.25
2018-05-16T17:51:26.111Z,2.45
2018-05-16T17:53:53.694Z,2.42
2018-05-16T17:56:22.001Z,1.90
2018-05-16T17:58:50.310Z,2.40
2018-05-16T18:01:17.881Z,2.03
2018-05-16T18:03:45.426Z,2.17
2018-05-16T18:06:12.995Z,5.87
2018-05-16T18:08:40.537Z,2.45
2018-05-16T18:11:08.869Z,3.45
2018-05-16T18:16:49.049Z,2.58
2018-05-16T18:19:16.640Z,3.80
2018-05-16T18:21:44.207Z,2.08
2018-05-16T18:24:12.519Z,2.35
2018-05-16T18:26:40.079Z,3.83
2018-05-16T18:29:08.617Z,4.65
2018-05-16T18:31:37.046Z,5.32
2018-05-16T18:34:04.605Z,2.30
2018-05-16T18:36:32.195Z,2.42
2018-05-16T18:38:59.791Z,2.43
2018-05-16T18:41:28.109Z,2.37
2018-05-16T18:43:55.755Z,3.10
2018-05-16T18:46:23.369Z,3.78
2018-05-16T18:48:51.728Z,5.62
2018-05-16T18:51:20.617Z,3.50
2018-05-16T18:53:51.105Z,3.10
2018-05-16T18:56:18.731Z,2.87
2018-05-16T18:58:47.068Z,4.87
2018-05-16T19:01:16.252Z,2.55
2018-05-16T19:03:43.877Z,3.77
2018-05-16T19:06:11.496Z,4.62
2018-05-16T19:08:39.162Z,2.33
2018-05-16T19:11:07.457Z,2.10
2018-05-16T19:13:35.055Z,5.28
2018-05-16T19:16:03.380Z,2.10
2018-05-16T19:18:30.988Z,4.40
2018-05-16T19:20:58.650Z,4.13
2018-05-16T19:23:26.851Z,6.30
2018-05-16T19:25:54.404Z,4.10
2018-05-16T19:28:22.857Z,3.17
2018-05-16T19:30:50.479Z,3.67
2018-05-16T19:33:18.030Z,3.00
2018-05-16T19:35:47.916Z,2.97
2018-05-16T19:38:16.294Z,4.73
2018-05-16T19:40:44.631Z,4.03
2018-05-16T19:43:12.195Z,2.33
2018-05-16T19:45:40.514Z,4.43
2018-05-16T19:48:08.897Z,2.23
2018-05-16T19:50:37.303Z,5.83
2018-05-16T19:53:04.873Z,3.62
2018-05-16T19:55:32.411Z,2.67
2018-05-16T19:58:00.048Z,3.00
2018-05-16T20:00:29.257Z,2.67
2018-05-16T20:02:56.805Z,2.90
2018-05-16T20:05:25.909Z,2.27
2018-05-16T20:07:54.306Z,4.33
2018-05-16T20:10:21.919Z,3.60
2018-05-16T20:12:49.516Z,3.87
2018-05-16T20:15:17.116Z,2.33
2018-05-16T20:17:44.724Z,4.93
2018-05-16T20:20:12.271Z,4.43
2018-05-16T20:22:39.834Z,3.23
2018-05-16T20:25:07.392Z,4.23
2018-05-16T20:27:35.921Z,3.33
2018-05-16T20:30:05.400Z,2.87
2018-05-16T20:32:33.770Z,2.53
2018-05-16T20:35:01.301Z,3.20
2018-05-16T20:37:28.861Z,3.40
2018-05-16T20:39:56.512Z,10.13
2018-05-16T20:42:24.098Z,3.27
2018-05-16T20:44:51.674Z,5.93
2018-05-16T20:47:19.257Z,3.13
2018-05-16T20:49:47.597Z,6.03
2018-05-16T20:52:15.148Z,3.53
2018-05-16T20:54:42.723Z,4.30
2018-05-16T20:57:10.276Z,3.57
2018-05-16T20:59:37.831Z,4.73
2018-05-16T21:02:06.143Z,3.13
2018-05-16T21:04:34.481Z,3.33
2018-05-16T21:07:02.923Z,4.37
2018-05-16T21:09:30.492Z,2.67
2018-05-16T21:11:58.034Z,3.53
2018-05-16T21:14:25.604Z,4.43
2018-05-16T21:16:53.151Z,3.23
2018-05-16T21:19:21.505Z,3.90
2018-05-16T21:21:49.058Z,3.40
2018-05-16T21:24:16.651Z,3.90
2018-05-16T21:26:44.203Z,3.57
2018-05-16T21:29:12.627Z,4.33
2018-05-16T21:31:40.170Z,3.23
2018-05-16T21:34:07.775Z,4.03
2018-05-16T21:36:35.321Z,3.20
2018-05-16T21:39:02.881Z,4.13
2018-05-16T21:41:30.436Z,4.63
2018-05-16T21:43:57.994Z,3.70
2018-05-16T21:46:25.536Z,7.07
2018-05-16T21:48:53.096Z,4.47
2018-05-16T21:51:20.627Z,5.07
2018-05-16T21:53:48.965Z,2.87
2018-05-16T21:56:16.497Z,4.67
2018-05-16T22:00:24.750Z,3.57
2018-05-16T22:02:52.277Z,4.67
2018-05-16T22:05:20.799Z,4.70
2018-05-16T22:07:48.357Z,3.57
2018-05-16T22:10:15.943Z,4.00
2018-05-16T22:12:43.496Z,4.83
2018-05-16T22:15:11.056Z,5.00
2018-05-16T22:17:38.610Z,5.23
2018-05-16T22:20:06.152Z,3.70
2018-05-16T22:22:34.439Z,3.03
2018-05-16T22:25:02.009Z,4.33
2018-05-16T22:27:29.540Z,4.27
2018-05-16T22:29:57.084Z,3.00
2018-05-16T22:32:30.288Z,3.30
2018-05-16T22:35:03.564Z,4.37
2018-05-16T22:37:36.740Z,4.27
2018-05-16T22:40:09.867Z,3.77
2018-05-16T22:42:36.896Z,3.27
2018-05-16T22:45:04.900Z,4.33
2018-05-16T22:47:32.432Z,5.80
2018-05-16T22:49:59.990Z,3.97
2018-05-16T22:52:27.517Z,3.90
2018-05-16T22:54:55.065Z,3.17
2018-05-16T22:57:22.606Z,2.50
2018-05-16T22:59:50.146Z,4.10
2018-05-16T23:02:17.742Z,3.20
2018-05-16T23:04:45.297Z,2.83
2018-05-16T23:07:12.876Z,3.07
2018-05-16T23:09:40.433Z,2.80
2018-05-16T23:12:08.789Z,2.87
2018-05-16T23:14:36.358Z,6.73
2018-05-16T23:17:03.934Z,3.43
2018-05-16T23:19:31.482Z,3.77
2018-05-16T23:21:59.040Z,2.47
2018-05-16T23:24:26.591Z,2.83
2018-05-16T23:26:54.236Z,3.70
2018-05-16T23:29:21.779Z,3.13
2018-05-16T23:31:49.357Z,2.47
2018-05-16T23:34:16.913Z,3.03
2018-05-16T23:36:44.524Z,3.77
2018-05-16T23:39:12.069Z,2.40
2018-05-16T23:41:39.665Z,8.13
2018-05-16T23:44:07.218Z,2.60
2018-05-16T23:46:35.550Z,2.47
2018-05-16T23:49:03.081Z,2.27
2018-05-16T23:51:30.643Z,3.00
2018-05-16T23:53:58.188Z,2.33
2018-05-16T23:56:25.761Z,2.77
2018-05-16T23:58:53.302Z,3.27
